createdAt,value
2022-08-16T00:01:24.362Z,8.13
2022-08-16T00:03:52.910Z,4.63
2022-08-16T00:06:20.679Z,6.63
2022-08-16T00:08:47.947Z,5.00
2022-08-16T00:11:16.495Z,6.63
2022-08-16T00:13:54.174Z,8.20
2022-08-16T00:17:00.617Z,8.02
2022-08-16T00:19:13.652Z,8.35
2022-08-16T00:21:43.383Z,7.07
2022-08-16T00:24:12.405Z,5.80
2022-08-16T00:26:44.062Z,7.35
2022-08-16T00:29:16.446Z,6.13
2022-08-16T00:32:01.306Z,8.00
2022-08-16T00:34:45.193Z,5.35
2022-08-16T00:37:58.590Z,9.75
2022-08-16T00:40:34.235Z,9.00
2022-08-16T00:43:12.154Z,10.70
2022-08-16T00:45:57.936Z,8.70
2022-08-16T00:48:31.942Z,5.55
2022-08-16T00:51:16.089Z,9.00
2022-08-16T00:53:48.215Z,7.10
2022-08-16T00:56:57.760Z,8.18
2022-08-16T00:59:11.217Z,7.90
2022-08-16T01:01:43.084Z,9.50
2022-08-16T01:04:29.535Z,7.70
2022-08-16T01:07:03.134Z,7.70
2022-08-16T01:09:37.238Z,6.30
2022-08-16T01:12:11.101Z,10.65
2022-08-16T01:14:58.657Z,9.45
2022-08-16T01:17:28.010Z,9.68
2022-08-16T01:20:24.175Z,10.52
2022-08-16T01:23:12.885Z,9.77
2022-08-16T01:25:59.819Z,14.77
2022-08-16T01:28:38.897Z,12.50
2022-08-16T01:31:14.833Z,12.27
2022-08-16T01:33:44.570Z,9.93
2022-08-16T01:36:13.114Z,10.70
2022-08-16T01:38:48.870Z,11.15
2022-08-16T01:41:24.385Z,11.85
2022-08-16T01:43:54.677Z,12.70
2022-08-16T01:46:58.113Z,9.02
2022-08-16T01:49:45.437Z,11.73
2022-08-16T01:52:30.239Z,11.07
2022-08-16T01:55:11.532Z,13.18
2022-08-16T01:57:38.860Z,11.18
2022-08-16T02:00:19.399Z,12.80
2022-08-16T02:02:52.108Z,16.83
2022-08-16T02:05:21.152Z,12.95
2022-08-16T02:07:52.061Z,10.00
2022-08-16T02:10:19.719Z,15.63
2022-08-16T02:12:51.209Z,9.35
2022-08-16T02:15:26.529Z,11.30
2022-08-16T02:18:01.270Z,14.07
2022-08-16T02:20:32.937Z,10.43
2022-08-16T02:23:05.704Z,9.30
2022-08-16T02:25:51.702Z,10.05
2022-08-16T02:28:21.170Z,15.00
2022-08-16T02:30:56.421Z,9.90
2022-08-16T02:33:44.146Z,9.13
2022-08-16T02:36:42.460Z,8.88
2022-08-16T02:39:12.157Z,10.55
2022-08-16T02:41:44.429Z,11.43
2022-08-16T02:44:14.033Z,10.75
2022-08-16T02:46:50.291Z,8.68
2022-08-16T02:49:20.933Z,11.60
2022-08-16T02:51:50.130Z,9.88
2022-08-16T02:54:17.271Z,11.05
2022-08-16T02:56:47.900Z,10.75
2022-08-16T02:59:16.352Z,13.10
2022-08-16T03:01:43.655Z,10.00
2022-08-16T03:04:39.845Z,16.98
2022-08-16T03:07:06.845Z,9.95
2022-08-16T03:09:47.970Z,12.65
2022-08-16T03:12:21.157Z,11.45
2022-08-16T03:14:57.625Z,9.65
2022-08-16T03:17:24.442Z,13.77
2022-08-16T03:20:03.156Z,10.27
2022-08-16T03:22:37.976Z,9.63
2022-08-16T03:25:14.044Z,12.63
2022-08-16T03:27:48.916Z,13.00
2022-08-16T03:30:24.219Z,10.27
2022-08-16T03:33:00.940Z,10.32
2022-08-16T03:35:36.322Z,10.98
2022-08-16T03:38:32.821Z,15.20
2022-08-16T03:41:24.191Z,10.57
2022-08-16T03:43:57.061Z,13.68
2022-08-16T03:46:48.161Z,11.30
2022-08-16T03:49:17.929Z,11.52
2022-08-16T03:51:49.095Z,9.63
2022-08-16T03:54:22.300Z,15.15
2022-08-16T03:56:57.833Z,9.48
2022-08-16T03:59:31.273Z,10.95
2022-08-16T04:02:04.209Z,12.80
2022-08-16T04:04:42.270Z,9.75
2022-08-16T04:07:10.437Z,11.13
2022-08-16T04:09:40.955Z,11.75
2022-08-16T04:12:53.532Z,10.63
2022-08-16T04:15:02.401Z,11.15
2022-08-16T04:17:30.187Z,9.18
2022-08-16T04:19:58.172Z,13.65
2022-08-16T04:22:27.393Z,14.55
2022-08-16T04:25:06.454Z,11.57
2022-08-16T04:27:36.497Z,13.02
2022-08-16T04:30:11.050Z,9.43
2022-08-16T04:32:44.570Z,7.78
2022-08-16T04:35:21.088Z,10.65
2022-08-16T04:37:53.666Z,13.52
2022-08-16T04:40:28.458Z,13.63
2022-08-16T04:43:00.561Z,14.52
2022-08-16T04:45:35.890Z,12.93
2022-08-16T04:48:10.268Z,12.07
2022-08-16T04:50:49.196Z,12.98
2022-08-16T04:53:19.675Z,10.57
2022-08-16T04:55:53.239Z,11.95
2022-08-16T04:58:44.378Z,14.88
2022-08-16T05:01:09.573Z,9.60
2022-08-16T05:03:41.968Z,11.23
2022-08-16T05:06:42.256Z,11.13
2022-08-16T05:09:19.086Z,15.48
2022-08-16T05:11:50.124Z,15.88
2022-08-16T05:14:20.368Z,9.88
2022-08-16T05:17:04.806Z,15.27
2022-08-16T05:19:36.188Z,14.35
2022-08-16T05:22:18.026Z,15.43
2022-08-16T05:24:49.422Z,14.43
2022-08-16T05:27:21.945Z,10.35
2022-08-16T05:29:57.777Z,14.50
2022-08-16T05:32:36.275Z,12.70
2022-08-16T05:35:12.264Z,12.10
2022-08-16T05:37:47.492Z,15.02
2022-08-16T05:40:16.678Z,14.50
2022-08-16T05:42:46.107Z,15.98
2022-08-16T05:45:21.383Z,34.67
2022-08-16T05:47:49.855Z,22.85
2022-08-16T05:50:34.375Z,26.70
2022-08-16T05:53:03.161Z,16.00
2022-08-16T05:55:30.261Z,11.88
2022-08-16T05:57:58.126Z,12.95
2022-08-16T06:00:25.337Z,19.40
2022-08-16T06:02:57.280Z,17.95
2022-08-16T06:05:47.313Z,14.25
2022-08-16T06:08:32.274Z,11.93
2022-08-16T06:11:09.588Z,21.58
2022-08-16T06:13:42.148Z,19.60
2022-08-16T06:16:18.267Z,14.50
2022-08-16T06:18:49.506Z,18.02
2022-08-16T06:21:23.600Z,19.63
2022-08-16T06:23:55.194Z,12.02
2022-08-16T06:26:23.862Z,18.02
2022-08-16T06:29:02.090Z,12.02
2022-08-16T06:31:46.619Z,17.05
2022-08-16T06:34:55.421Z,17.27
2022-08-16T06:37:03.682Z,15.82
2022-08-16T06:39:46.706Z,12.27
2022-08-16T06:42:47.624Z,12.45
2022-08-16T06:45:44.875Z,16.38
2022-08-16T06:48:21.216Z,11.05
2022-08-16T06:51:05.767Z,11.95
2022-08-16T06:53:35.452Z,54.57
2022-08-16T06:56:13.811Z,14.88
2022-08-16T06:58:55.228Z,14.63
2022-08-16T07:01:43.298Z,13.63
2022-08-16T07:04:32.355Z,14.82
2022-08-16T07:07:09.886Z,23.90
2022-08-16T07:09:38.310Z,46.90
2022-08-16T07:12:08.133Z,10.73
2022-08-16T07:14:40.061Z,12.77
2022-08-16T07:17:11.357Z,9.93
2022-08-16T07:20:30.041Z,11.50
2022-08-16T07:22:41.265Z,11.90
2022-08-16T07:25:17.267Z,11.75
2022-08-16T07:27:45.713Z,14.88
2022-08-16T07:30:38.813Z,12.98
2022-08-16T07:33:07.780Z,14.73
2022-08-16T07:35:44.566Z,13.25
2022-08-16T07:38:19.933Z,12.02
2022-08-16T07:41:09.921Z,11.07
2022-08-16T07:43:41.696Z,18.25
2022-08-16T07:46:37.641Z,10.63
2022-08-16T07:49:02.594Z,12.73
2022-08-16T07:51:35.577Z,9.32
2022-08-16T07:54:09.727Z,23.17
2022-08-16T07:56:50.153Z,7.57
2022-08-16T07:59:17.666Z,10.90
2022-08-16T08:01:55.356Z,10.30
2022-08-16T08:04:27.188Z,8.90
2022-08-16T08:07:02.332Z,21.92
2022-08-16T08:09:37.543Z,8.02
2022-08-16T08:12:32.399Z,14.65
2022-08-16T08:15:01.115Z,10.18
2022-08-16T08:17:42.555Z,15.68
2022-08-16T08:20:18.606Z,12.77
2022-08-16T08:23:00.121Z,8.40
2022-08-16T08:28:18.588Z,10.50
2022-08-16T08:31:01.039Z,16.63
2022-08-16T08:33:33.947Z,22.15
2022-08-16T08:36:05.372Z,24.20
2022-08-16T08:38:43.884Z,7.20
2022-08-16T08:41:15.414Z,8.30
2022-08-16T08:43:50.548Z,8.48
2022-08-16T08:46:21.729Z,7.25
2022-08-16T08:49:01.898Z,11.20
2022-08-16T08:51:38.250Z,7.03
2022-08-16T08:54:14.229Z,9.65
2022-08-16T08:56:46.515Z,11.40
2022-08-16T08:59:28.292Z,8.23
2022-08-16T09:01:57.968Z,14.75
2022-08-16T09:04:35.195Z,8.93
2022-08-16T09:07:05.528Z,5.47
2022-08-16T09:09:37.815Z,10.93
2022-08-16T09:12:35.695Z,17.35
2022-08-16T09:15:06.695Z,13.65
2022-08-16T09:17:51.770Z,16.33
2022-08-16T09:20:27.128Z,9.68
2022-08-16T09:22:54.820Z,10.43
2022-08-16T09:25:34.506Z,17.85
2022-08-16T09:29:13.565Z,37.25
2022-08-16T09:31:11.033Z,20.88
2022-08-16T09:33:39.298Z,8.98
2022-08-16T09:36:12.195Z,7.60
2022-08-16T09:38:59.949Z,21.77
2022-08-16T09:41:27.227Z,31.73
2022-08-16T09:44:00.870Z,11.13
2022-08-16T09:46:46.009Z,8.73
2022-08-16T09:49:19.735Z,5.03
2022-08-16T09:51:53.166Z,7.20
2022-08-16T09:54:25.549Z,10.00
2022-08-16T09:57:00.097Z,12.10
2022-08-16T09:59:30.443Z,15.60
2022-08-16T10:01:58.245Z,23.85
2022-08-16T10:04:31.096Z,6.47
2022-08-16T10:07:02.864Z,10.63
2022-08-16T10:09:53.583Z,9.15
2022-08-16T10:12:46.592Z,6.82
2022-08-16T10:15:23.633Z,6.88
2022-08-16T10:18:01.521Z,5.07
2022-08-16T10:20:31.764Z,5.63
2022-08-16T10:23:05.723Z,6.55
2022-08-16T10:27:03.782Z,7.82
2022-08-16T10:28:29.213Z,4.55
2022-08-16T10:30:59.757Z,7.30
2022-08-16T10:33:29.578Z,8.82
2022-08-16T10:38:36.593Z,5.07
2022-08-16T10:41:08.676Z,9.65
2022-08-16T10:43:40.739Z,5.22
2022-08-16T10:46:39.141Z,12.85
2022-08-16T10:49:01.085Z,13.50
2022-08-16T10:51:34.178Z,5.07
2022-08-16T10:54:28.903Z,4.70
2022-08-16T10:56:59.003Z,5.25
2022-08-16T10:59:39.048Z,4.65
2022-08-16T11:03:00.788Z,5.85
2022-08-16T11:05:09.416Z,4.68
2022-08-16T11:07:43.658Z,3.47
2022-08-16T11:11:04.718Z,5.50
2022-08-16T11:15:55.901Z,12.90
2022-08-16T11:19:03.061Z,14.57
2022-08-16T11:21:29.502Z,11.60
2022-08-16T11:23:58.830Z,5.63
2022-08-16T11:26:27.077Z,23.65
2022-08-16T11:31:53.762Z,11.43
2022-08-16T11:34:21.416Z,6.05
2022-08-16T11:36:59.282Z,11.70
2022-08-16T11:39:29.281Z,5.45
2022-08-16T11:41:57.756Z,8.10
2022-08-16T11:44:45.270Z,7.97
2022-08-16T11:47:13.194Z,5.28
2022-08-16T11:49:40.014Z,3.80
2022-08-16T11:52:07.370Z,9.80
2022-08-16T11:54:36.767Z,5.35
2022-08-16T11:57:08.988Z,13.98
2022-08-16T11:59:39.602Z,6.82
2022-08-16T12:02:31.839Z,8.50
2022-08-16T12:04:56.433Z,6.55
2022-08-16T12:07:24.212Z,7.10
2022-08-16T12:09:53.654Z,11.18
2022-08-16T12:12:23.447Z,6.18
2022-08-16T12:14:59.212Z,4.65
2022-08-16T12:17:29.006Z,114.50
2022-08-16T12:19:58.925Z,16.40
2022-08-16T12:22:26.622Z,15.90
2022-08-16T12:24:54.341Z,17.23
2022-08-16T12:27:24.028Z,12.27
2022-08-16T12:29:54.873Z,24.17
2022-08-16T12:32:36.003Z,18.10
2022-08-16T12:35:09.154Z,62.75
2022-08-16T12:37:36.207Z,73.38
2022-08-16T12:40:04.896Z,134.75
2022-08-16T12:42:35.662Z,164.30
2022-08-16T12:45:12.576Z,143.57
2022-08-16T12:48:29.398Z,223.25
2022-08-16T12:50:49.346Z,53.97
2022-08-16T12:53:18.166Z,42.42
2022-08-16T12:55:44.993Z,13.70
2022-08-16T12:58:49.328Z,10.10
2022-08-16T13:01:01.504Z,5.13
2022-08-16T13:03:32.129Z,45.75
2022-08-16T13:06:00.492Z,3.13
2022-08-16T13:08:30.812Z,3.15
2022-08-16T13:10:58.983Z,9.57
2022-08-16T13:13:27.434Z,4.05
2022-08-16T13:16:05.103Z,123.18
2022-08-16T13:18:38.319Z,3.20
2022-08-16T13:21:07.904Z,137.35
2022-08-16T13:23:43.711Z,96.75
2022-08-16T13:26:11.095Z,14.05
2022-08-16T13:28:39.079Z,10.02
2022-08-16T13:31:13.234Z,20.60
2022-08-16T13:33:42.873Z,54.03
2022-08-16T13:36:21.375Z,8.93
2022-08-16T13:39:00.028Z,264.95
2022-08-16T13:41:30.158Z,35.05
2022-08-16T13:44:00.789Z,6.30
2022-08-16T13:46:30.162Z,14.43
2022-08-16T13:48:57.294Z,11.57
2022-08-16T13:51:29.151Z,42.60
2022-08-16T13:54:04.544Z,18.23
2022-08-16T13:56:37.842Z,39.22
2022-08-16T13:59:19.707Z,3.55
2022-08-16T14:02:05.511Z,35.13
2022-08-16T14:04:35.478Z,26.63
2022-08-16T14:07:06.765Z,321.10
2022-08-16T14:09:36.415Z,85.22
2022-08-16T14:12:18.006Z,164.20
2022-08-16T14:14:46.038Z,192.50
2022-08-16T14:17:14.425Z,41.50
2022-08-16T14:19:44.834Z,39.53
2022-08-16T14:22:30.295Z,9.38
2022-08-16T14:25:00.496Z,42.90
2022-08-16T14:27:30.423Z,92.00
2022-08-16T14:29:59.570Z,92.10
2022-08-16T14:32:33.908Z,64.32
2022-08-16T14:35:07.405Z,349.27
2022-08-16T14:37:35.094Z,410.08
2022-08-16T14:40:03.574Z,232.70
2022-08-16T14:42:30.824Z,476.52
2022-08-16T14:44:57.701Z,416.50
2022-08-16T14:47:31.584Z,329.95
2022-08-16T14:50:01.916Z,245.63
2022-08-16T14:52:54.160Z,185.23
2022-08-16T14:55:16.073Z,244.90
2022-08-16T14:57:43.606Z,281.30
2022-08-16T15:00:13.427Z,23.48
2022-08-16T15:02:52.867Z,359.55
2022-08-16T15:05:23.838Z,271.10
2022-08-16T15:07:52.910Z,138.65
2022-08-16T15:10:24.488Z,7.10
2022-08-16T15:12:56.286Z,24.02
2022-08-16T15:15:27.013Z,35.08
2022-08-16T15:17:56.585Z,17.20
2022-08-16T15:20:29.629Z,6.65
2022-08-16T15:22:59.622Z,8.57
2022-08-16T15:25:30.334Z,38.60
2022-08-16T15:27:58.793Z,49.92
2022-08-16T15:30:56.573Z,19.13
2022-08-16T15:33:17.405Z,6.80
2022-08-16T15:35:46.174Z,5.97
2022-08-16T15:38:31.752Z,8.57
2022-08-16T15:41:01.870Z,3.65
2022-08-16T15:43:39.357Z,21.30
2022-08-16T15:46:35.594Z,17.88
2022-08-16T15:49:12.473Z,6.88
2022-08-16T15:51:41.448Z,5.25
2022-08-16T15:54:29.387Z,6.72
2022-08-16T15:57:09.656Z,4.28
2022-08-16T15:59:49.004Z,6.40
2022-08-16T16:02:27.733Z,9.30
2022-08-16T16:05:01.586Z,12.18
2022-08-16T16:07:30.514Z,5.53
2022-08-16T16:09:59.344Z,14.93
2022-08-16T16:12:53.531Z,4.22
2022-08-16T16:15:19.017Z,4.32
2022-08-16T16:17:51.178Z,9.68
2022-08-16T16:20:24.384Z,3.72
2022-08-16T16:23:04.439Z,5.80
2022-08-16T16:25:39.679Z,4.83
2022-08-16T16:29:05.012Z,5.88
2022-08-16T16:31:05.552Z,10.77
2022-08-16T16:33:38.863Z,3.47
2022-08-16T16:36:08.757Z,4.82
2022-08-16T16:38:39.264Z,7.22
2022-08-16T16:41:10.102Z,6.10
2022-08-16T16:43:40.714Z,4.80
2022-08-16T16:46:40.652Z,5.65
2022-08-16T16:48:56.650Z,7.57
2022-08-16T16:51:24.466Z,3.83
2022-08-16T16:53:56.807Z,11.55
2022-08-16T16:56:30.088Z,3.85
2022-08-16T16:59:01.729Z,6.70
2022-08-16T17:01:57.080Z,7.05
2022-08-16T17:04:23.996Z,3.10
2022-08-16T17:06:58.282Z,9.18
2022-08-16T17:09:27.326Z,4.72
2022-08-16T17:11:55.088Z,3.22
2022-08-16T17:14:32.945Z,7.22
2022-08-16T17:17:03.898Z,16.70
2022-08-16T17:19:31.838Z,4.15
2022-08-16T17:22:00.422Z,4.82
2022-08-16T17:24:39.221Z,3.65
2022-08-16T17:27:08.228Z,3.63
2022-08-16T17:29:35.523Z,8.55
2022-08-16T17:32:34.419Z,3.63
2022-08-16T17:35:11.513Z,3.08
2022-08-16T17:37:54.335Z,5.15
2022-08-16T17:40:40.412Z,5.78
2022-08-16T17:43:13.351Z,3.05
2022-08-16T17:45:42.881Z,4.85
2022-08-16T17:48:10.780Z,9.05
2022-08-16T17:50:38.966Z,5.22
2022-08-16T17:53:09.798Z,6.90
2022-08-16T17:55:40.935Z,6.18
2022-08-16T17:58:22.916Z,6.72
2022-08-16T18:00:53.889Z,4.15
2022-08-16T18:04:02.976Z,10.77
2022-08-16T18:06:20.427Z,5.68
2022-08-16T18:08:48.642Z,5.88
2022-08-16T18:11:18.331Z,6.10
2022-08-16T18:13:47.923Z,4.38
2022-08-16T18:16:16.908Z,8.98
2022-08-16T18:18:44.492Z,7.85
2022-08-16T18:21:31.514Z,8.38
2022-08-16T18:23:59.789Z,6.35
2022-08-16T18:26:26.838Z,5.03
2022-08-16T18:28:55.774Z,7.10
2022-08-16T18:31:22.775Z,9.43
2022-08-16T18:33:55.554Z,7.90
2022-08-16T18:36:26.391Z,7.97
2022-08-16T18:38:54.890Z,8.82
2022-08-16T18:41:28.453Z,6.90
2022-08-16T18:46:50.815Z,10.13
2022-08-16T18:49:21.136Z,6.55
2022-08-16T18:51:48.021Z,7.15
2022-08-16T18:54:18.129Z,6.07
2022-08-16T18:56:56.246Z,6.90
2022-08-16T18:59:27.213Z,6.82
2022-08-16T19:02:00.480Z,8.60
2022-08-16T19:04:56.080Z,7.55
2022-08-16T19:07:30.462Z,10.57
2022-08-16T19:10:03.694Z,8.32
2022-08-16T19:12:38.108Z,7.00
2022-08-16T19:15:18.256Z,8.15
2022-08-16T19:17:47.611Z,6.78
2022-08-16T19:20:18.288Z,5.75
2022-08-16T19:23:05.345Z,14.73
2022-08-16T19:25:48.541Z,9.43
2022-08-16T19:28:52.003Z,11.30
2022-08-16T19:31:10.850Z,14.80
2022-08-16T19:33:38.747Z,6.10
2022-08-16T19:36:05.900Z,4.63
2022-08-16T19:38:33.731Z,8.43
2022-08-16T19:41:00.664Z,9.43
2022-08-16T19:43:27.833Z,7.35
2022-08-16T19:45:55.394Z,7.25
2022-08-16T19:48:22.751Z,7.50
2022-08-16T19:50:49.749Z,24.90
2022-08-16T19:53:18.660Z,9.23
2022-08-16T19:55:47.250Z,11.40
2022-08-16T19:58:18.006Z,14.32
2022-08-16T20:00:47.253Z,11.23
2022-08-16T20:03:21.763Z,9.00
2022-08-16T20:05:50.338Z,6.25
2022-08-16T20:08:17.473Z,9.15
2022-08-16T20:10:46.735Z,9.85
2022-08-16T20:13:18.503Z,8.40
2022-08-16T20:15:47.472Z,11.82
2022-08-16T20:18:24.551Z,7.38
2022-08-16T20:20:54.560Z,22.27
2022-08-16T20:23:24.999Z,7.47
2022-08-16T20:25:55.635Z,8.85
2022-08-16T20:28:53.126Z,7.38
2022-08-16T20:31:11.379Z,6.50
2022-08-16T20:33:38.294Z,9.98
2022-08-16T20:36:05.390Z,7.93
2022-08-16T20:38:32.226Z,8.13
2022-08-16T20:40:58.970Z,13.98
2022-08-16T20:43:25.803Z,9.23
2022-08-16T20:45:52.822Z,14.20
2022-08-16T20:48:19.720Z,9.50
2022-08-16T20:50:46.734Z,18.05
2022-08-16T20:53:13.502Z,10.45
2022-08-16T20:55:41.638Z,8.85
2022-08-16T20:58:08.555Z,9.32
2022-08-16T21:00:36.045Z,11.63
2022-08-16T21:03:10.759Z,7.93
2022-08-16T21:05:37.941Z,8.98
2022-08-16T21:08:27.927Z,15.77
2022-08-16T21:10:52.920Z,10.40
2022-08-16T21:13:20.826Z,11.10
2022-08-16T21:15:47.917Z,12.68
2022-08-16T21:18:15.027Z,9.02
2022-08-16T21:20:41.858Z,13.70
2022-08-16T21:23:10.938Z,15.18
2022-08-16T21:25:39.609Z,12.73
2022-08-16T21:28:40.046Z,11.40
2022-08-16T21:31:07.623Z,12.00
2022-08-16T21:33:36.799Z,12.18
2022-08-16T21:36:04.058Z,13.38
2022-08-16T21:38:31.228Z,15.05
2022-08-16T21:40:59.342Z,15.68
2022-08-16T21:43:28.642Z,15.20
2022-08-16T21:45:55.697Z,22.23
2022-08-16T21:48:34.806Z,19.60
2022-08-16T21:51:05.589Z,19.33
2022-08-16T21:53:32.633Z,16.67
2022-08-16T21:56:00.099Z,15.38
2022-08-16T21:58:27.454Z,21.65
2022-08-16T22:00:54.549Z,17.38
2022-08-16T22:03:21.449Z,17.90
2022-08-16T22:06:00.104Z,19.98
2022-08-16T22:08:49.011Z,22.50
2022-08-16T22:11:20.869Z,17.23
2022-08-16T22:13:51.289Z,18.00
2022-08-16T22:16:26.659Z,24.15
2022-08-16T22:18:53.482Z,19.83
2022-08-16T22:21:20.574Z,19.52
2022-08-16T22:23:55.242Z,21.77
2022-08-16T22:26:30.468Z,23.70
2022-08-16T22:29:00.689Z,21.88
2022-08-16T22:31:27.811Z,21.35
2022-08-16T22:33:56.583Z,25.35
2022-08-16T22:36:24.219Z,22.13
2022-08-16T22:38:59.678Z,28.30
2022-08-16T22:41:34.267Z,24.55
2022-08-16T22:44:02.524Z,23.38
2022-08-16T22:46:30.155Z,28.02
2022-08-16T22:48:57.478Z,27.50
2022-08-16T22:51:26.758Z,29.38
2022-08-16T22:53:54.881Z,27.85
2022-08-16T22:56:22.787Z,29.40
2022-08-16T22:58:49.738Z,33.20
2022-08-16T23:01:18.932Z,27.08
2022-08-16T23:03:46.227Z,30.88
2022-08-16T23:06:14.240Z,27.15
2022-08-16T23:08:42.920Z,30.42
2022-08-16T23:11:13.507Z,24.38
2022-08-16T23:13:52.557Z,33.92
2022-08-16T23:16:32.500Z,25.13
2022-08-16T23:19:03.543Z,33.65
2022-08-16T23:21:31.088Z,33.53
2022-08-16T23:23:58.296Z,30.45
2022-08-16T23:26:46.193Z,28.63
2022-08-16T23:29:15.564Z,28.42
2022-08-16T23:31:54.871Z,25.00
2022-08-16T23:34:22.459Z,28.50
2022-08-16T23:36:49.374Z,30.25
2022-08-16T23:39:16.275Z,28.83
2022-08-16T23:41:44.418Z,27.60
2022-08-16T23:44:55.974Z,28.20
2022-08-16T23:46:59.022Z,24.42
2022-08-16T23:49:58.106Z,40.40
2022-08-16T23:52:12.914Z,26.50
2022-08-16T23:54:39.718Z,30.42
2022-08-16T23:57:07.970Z,27.25
2022-08-16T23:59:52.601Z,23.73
